Time;durP1;ratioP1;P1;durP2;ratioP2;P2;SDS_P1;SDS_P2;PMS_P1;PMS_P2;Temp;Humidity;BMP_temperature;BMP_pressure;BME280_temperature;BME280_humidity;BME280_pressure;Samples;Min_cycle;Max_cycle;Signal;HPM_P1;HPM_P2
2023/04/12 00:00:40;;;;;;;17.23;8.50;;;;;;;;;;10531162;28;20786;-82
2023/04/12 00:05:45;;;;;;;17.87;8.57;;;;;;;;;;10531646;28;20064;-83
2023/04/12 00:10:46;;;;;;;19.45;8.65;;;;;;;;;;10532074;28;20046;-83
2023/04/12 00:15:47;;;;;;;17.13;8.57;;;;;;;;;;10531246;28;20485;-83
2023/04/12 00:20:48;;;;;;;21.83;10.23;;;;;;;;;;10530873;28;20055;-83
2023/04/12 00:25:49;;;;;;;15.90;8.03;;;;;;;;;;10531381;28;20035;-81
2023/04/12 00:30:50;;;;;;;16.87;7.60;;;;;;;;;;10529304;28;20026;-84
2023/04/12 00:35:51;;;;;;;17.00;8.20;;;;;;;;;;10530670;28;20039;-83
2023/04/12 00:40:52;;;;;;;17.00;9.00;;;;;;;;;;10530295;28;20388;-83
2023/04/12 00:45:55;;;;;;;17.67;8.40;;;;;;;;;;10529874;28;20067;-82
2023/04/12 00:50:56;;;;;;;17.50;9.03;;;;;;;;;;10530506;28;20111;-84
2023/04/12 00:55:57;;;;;;;19.27;9.40;;;;;;;;;;10529095;28;20027;-83
2023/04/12 01:00:59;;;;;;;19.47;9.53;;;;;;;;;;10528792;28;20110;-82
2023/04/12 01:06:03;;;;;;;18.53;8.90;;;;;;;;;;10529306;28;20131;-82
2023/04/12 01:11:17;;;;;;;21.63;9.60;;;;;;;;;;10529235;28;20738;-82
2023/04/12 01:16:21;;;;;;;20.43;9.87;;;;;;;;;;10527379;28;20024;-83
2023/04/12 01:21:41;;;;;;;19.20;8.30;;;;;;;;;;10529475;28;20606;-82
2023/04/12 01:26:47;;;;;;;21.67;9.33;;;;;;;;;;10528193;28;20024;-83
2023/04/12 01:31:53;;;;;;;18.40;9.25;;;;;;;;;;10528438;28;20036;-83
2023/04/12 01:36:55;;;;;;;19.13;8.80;;;;;;;;;;10529349;28;20160;-83
2023/04/12 01:41:56;;;;;;;16.00;7.93;;;;;;;;;;10528613;28;20027;-81
2023/04/12 01:46:57;;;;;;;18.13;8.00;;;;;;;;;;10527464;28;20024;-81
2023/04/12 01:52:03;;;;;;;19.17;9.40;;;;;;;;;;10527630;28;20988;-80
2023/04/12 01:57:04;;;;;;;16.38;8.90;;;;;;;;;;10523178;28;20701;-80
2023/04/12 02:02:05;;;;;;;17.50;8.37;;;;;;;;;;10506391;28;20043;-80
2023/04/12 02:07:06;;;;;;;18.23;8.53;;;;;;;;;;10528239;28;20044;-80
2023/04/12 02:12:08;;;;;;;17.53;7.83;;;;;;;;;;10527438;28;20020;-81
2023/04/12 02:17:11;;;;;;;19.10;8.47;;;;;;;;;;10526129;28;20048;-81
2023/04/12 02:22:12;;;;;;;18.97;7.87;;;;;;;;;;10526403;28;20052;-81
2023/04/12 02:27:13;;;;;;;16.87;7.50;;;;;;;;;;10526672;28;20107;-81
2023/04/12 02:32:14;;;;;;;16.63;8.73;;;;;;;;;;10525518;28;20042;-81
2023/04/12 02:37:16;;;;;;;20.17;9.40;;;;;;;;;;10525834;28;20051;-80
2023/04/12 02:42:17;;;;;;;19.43;9.07;;;;;;;;;;10526129;28;20386;-80
2023/04/12 02:47:18;;;;;;;20.83;11.00;;;;;;;;;;10525953;28;20035;-81
2023/04/12 02:52:19;;;;;;;21.77;9.73;;;;;;;;;;10526769;28;20023;-80
2023/04/12 02:57:22;;;;;;;18.07;9.23;;;;;;;;;;10525811;28;20294;-80
2023/04/12 03:02:23;;;;;;;21.67;9.20;;;;;;;;;;10524464;28;20040;-80
2023/04/12 03:07:24;;;;;;;24.13;10.57;;;;;;;;;;10525638;28;20047;-82
2023/04/12 03:12:25;;;;;;;25.93;10.17;;;;;;;;;;10526176;28;20036;-79
2023/04/12 03:17:26;;;;;;;31.70;14.00;;;;;;;;;;10523277;28;20043;-80
2023/04/12 03:22:26;;;;;;;32.07;14.60;;;;;;;;;;10525639;28;20470;-80
2023/04/12 03:27:27;;;;;;;35.93;16.20;;;;;;;;;;10524648;28;20039;-80
2023/04/12 03:32:28;;;;;;;24.63;11.90;;;;;;;;;;10526630;28;20105;-82
2023/04/12 03:37:29;;;;;;;29.63;13.57;;;;;;;;;;10532208;28;20071;-80
2023/04/12 03:42:30;;;;;;;26.97;12.80;;;;;;;;;;10532741;28;20144;-80
2023/04/12 03:47:32;;;;;;;33.87;16.63;;;;;;;;;;10531818;28;20100;-80
2023/04/12 03:52:33;;;;;;;34.47;16.33;;;;;;;;;;10513258;28;20445;-80
2023/04/12 03:57:34;;;;;;;31.00;13.83;;;;;;;;;;10500243;28;20040;-80
2023/04/12 04:02:35;;;;;;;30.73;13.73;;;;;;;;;;10512455;28;20109;-78
2023/04/12 04:07:36;;;;;;;31.83;14.00;;;;;;;;;;10522732;28;20032;-78
2023/04/12 04:12:37;;;;;;;24.93;12.93;;;;;;;;;;10506447;28;20059;-80
2023/04/12 04:17:38;;;;;;;34.70;16.33;;;;;;;;;;10511353;28;20147;-82
2023/04/12 04:22:41;;;;;;;27.83;13.60;;;;;;;;;;10519006;28;20031;-79
2023/04/12 04:27:43;;;;;;;23.60;12.37;;;;;;;;;;10529046;28;20501;-80
2023/04/12 04:32:44;;;;;;;22.97;11.47;;;;;;;;;;10527279;28;20109;-79
2023/04/12 04:37:45;;;;;;;28.00;14.23;;;;;;;;;;10530079;28;20713;-81
2023/04/12 04:42:53;;;;;;;24.93;11.70;;;;;;;;;;10529696;28;20016;-80
2023/04/12 04:47:54;;;;;;;25.97;13.07;;;;;;;;;;10526742;28;20039;-79
2023/04/12 04:52:55;;;;;;;32.13;13.43;;;;;;;;;;10529281;28;20196;-80
2023/04/12 04:57:56;;;;;;;28.97;12.87;;;;;;;;;;10529717;28;20080;-81
2023/04/12 05:02:57;;;;;;;24.87;12.03;;;;;;;;;;10528095;28;20060;-78
2023/04/12 05:07:58;;;;;;;25.93;13.00;;;;;;;;;;10528892;28;20062;-80
2023/04/12 05:12:59;;;;;;;24.33;12.67;;;;;;;;;;10529080;28;20093;-80
2023/04/12 05:18:01;;;;;;;28.27;13.40;;;;;;;;;;10528574;28;20073;-78
2023/04/12 05:23:01;;;;;;;33.73;13.07;;;;;;;;;;10528310;28;20032;-80
2023/04/12 05:28:03;;;;;;;29.40;13.80;;;;;;;;;;10528891;28;20024;-78
2023/04/12 05:33:04;;;;;;;26.33;11.90;;;;;;;;;;10517558;28;20116;-79
2023/04/12 05:38:05;;;;;;;27.97;13.70;;;;;;;;;;10527818;28;20087;-79
2023/04/12 05:43:06;;;;;;;28.17;13.43;;;;;;;;;;10526853;28;20498;-81
2023/04/12 05:48:07;;;;;;;34.13;13.40;;;;;;;;;;10527202;28;20034;-79
2023/04/12 05:53:09;;;;;;;31.13;13.80;;;;;;;;;;10527242;28;20027;-79
2023/04/12 05:58:10;;;;;;;27.33;14.43;;;;;;;;;;10526358;28;20032;-78
2023/04/12 06:03:11;;;;;;;25.47;12.67;;;;;;;;;;10526522;28;20167;-81
2023/04/12 06:08:13;;;;;;;30.17;13.70;;;;;;;;;;10526540;28;20036;-79
2023/04/12 06:13:15;;;;;;;27.73;14.67;;;;;;;;;;10525743;28;20020;-78
2023/04/12 06:18:16;;;;;;;22.50;10.87;;;;;;;;;;10525736;28;20039;-79
2023/04/12 06:23:18;;;;;;;24.83;11.50;;;;;;;;;;10525876;28;20050;-80
2023/04/12 06:28:19;;;;;;;26.70;12.60;;;;;;;;;;10524378;28;20039;-80
2023/04/12 06:33:23;;;;;;;24.10;12.07;;;;;;;;;;10517886;28;20039;-79
2023/04/12 06:38:24;;;;;;;20.47;11.90;;;;;;;;;;10530952;28;20520;-80
2023/04/12 06:43:25;;;;;;;19.30;10.27;;;;;;;;;;10525481;28;20112;-81
2023/04/12 06:48:26;;;;;;;23.33;10.80;;;;;;;;;;10525642;28;20024;-80
2023/04/12 06:53:28;;;;;;;22.03;10.83;;;;;;;;;;10524948;28;20042;-79
2023/04/12 06:58:30;;;;;;;20.00;11.17;;;;;;;;;;10525509;28;20078;-79
2023/04/12 07:03:32;;;;;;;24.80;13.37;;;;;;;;;;10525912;28;20056;-79
2023/04/12 07:08:34;;;;;;;19.23;10.83;;;;;;;;;;10521260;28;20044;-80
2023/04/12 07:13:35;;;;;;;18.73;9.97;;;;;;;;;;10533991;28;20028;-78
2023/04/12 07:18:38;;;;;;;17.67;10.63;;;;;;;;;;10533149;28;20039;-79
2023/04/12 07:23:39;;;;;;;21.30;10.50;;;;;;;;;;10533569;28;20047;-80
2023/04/12 07:28:40;;;;;;;15.70;8.87;;;;;;;;;;10533200;28;20054;-80
2023/04/12 07:33:41;;;;;;;20.17;11.33;;;;;;;;;;10537483;28;20445;-80
2023/04/12 07:38:42;;;;;;;18.63;9.87;;;;;;;;;;10532471;28;20046;-80
2023/04/12 07:43:43;;;;;;;18.63;10.80;;;;;;;;;;10533171;28;20044;-81
2023/04/12 07:48:44;;;;;;;22.10;10.20;;;;;;;;;;10526607;28;20060;-80
2023/04/12 07:53:47;;;;;;;16.20;9.53;;;;;;;;;;10528566;28;20035;-80
2023/04/12 07:58:48;;;;;;;15.63;7.83;;;;;;;;;;10531655;28;20043;-80
2023/04/12 08:03:49;;;;;;;14.93;9.03;;;;;;;;;;10531725;28;20052;-79
2023/04/12 08:08:50;;;;;;;13.57;8.00;;;;;;;;;;10531691;28;20048;-81
2023/04/12 08:13:51;;;;;;;21.93;11.73;;;;;;;;;;10531896;28;20123;-79
2023/04/12 08:18:51;;;;;;;21.00;9.57;;;;;;;;;;10529602;28;20398;-81
2023/04/12 08:23:53;;;;;;;15.70;8.67;;;;;;;;;;10530284;28;20138;-79
2023/04/12 08:28:54;;;;;;;14.40;7.95;;;;;;;;;;10531592;28;20028;-81
2023/04/12 08:33:55;;;;;;;20.25;8.27;;;;;;;;;;10519595;28;20494;-79
2023/04/12 08:38:59;;;;;;;10.43;6.22;;;;;;;;;;10529080;28;20044;-78
2023/04/12 08:44:02;;;;;;;12.90;6.55;;;;;;;;;;10529933;28;20144;-78
2023/04/12 08:49:03;;;;;;;10.05;5.80;;;;;;;;;;10528538;28;20046;-81
2023/04/12 08:54:04;;;;;;;11.57;5.95;;;;;;;;;;10528986;28;20036;-79
2023/04/12 08:59:05;;;;;;;9.15;6.18;;;;;;;;;;10528152;28;20047;-80
2023/04/12 09:04:06;;;;;;;9.43;5.50;;;;;;;;;;10528191;28;20052;-78
2023/04/12 09:09:07;;;;;;;9.43;5.32;;;;;;;;;;10528772;28;20043;-80
2023/04/12 09:14:22;;;;;;;7.45;3.95;;;;;;;;;;10528952;28;20530;-79
2023/04/12 09:19:33;;;;;;;5.38;3.13;;;;;;;;;;10509811;28;20043;-80
2023/04/12 09:24:45;;;;;;;12.35;6.15;;;;;;;;;;10524726;28;20039;-81
2023/04/12 09:29:50;;;;;;;10.20;5.07;;;;;;;;;;10516142;28;20114;-79
2023/04/12 09:34:56;;;;;;;7.57;4.77;;;;;;;;;;10531494;28;20028;-80
2023/04/12 09:40:04;;;;;;;10.00;6.07;;;;;;;;;;10527960;28;20418;-80
2023/04/12 09:45:19;;;;;;;11.60;6.18;;;;;;;;;;10528213;28;20515;-80
2023/04/12 09:50:21;;;;;;;9.15;6.13;;;;;;;;;;10528136;28;20115;-81
2023/04/12 09:55:26;;;;;;;10.13;5.95;;;;;;;;;;10510183;28;20028;-80
2023/04/12 10:00:28;;;;;;;7.63;4.28;;;;;;;;;;10528293;28;20047;-79
2023/04/12 10:05:35;;;;;;;8.45;5.88;;;;;;;;;;10527174;28;20117;-78
2023/04/12 10:10:36;;;;;;;8.45;5.70;;;;;;;;;;10508769;28;20036;-81
2023/04/12 10:15:37;;;;;;;8.40;5.43;;;;;;;;;;10526584;28;20023;-79
2023/04/12 10:20:40;;;;;;;10.32;6.55;;;;;;;;;;10513313;28;20135;-80
2023/04/12 10:25:44;;;;;;;12.75;7.28;;;;;;;;;;10527230;28;20085;-80
2023/04/12 10:30:49;;;;;;;10.77;7.68;;;;;;;;;;10526490;28;20036;-80
2023/04/12 10:36:07;;;;;;;10.82;6.75;;;;;;;;;;10512392;28;20048;-80
2023/04/12 10:41:21;;;;;;;10.05;6.47;;;;;;;;;;10525426;28;20036;-80
2023/04/12 10:46:37;;;;;;;9.93;6.85;;;;;;;;;;10526646;28;20020;-79
2023/04/12 10:51:38;;;;;;;8.73;6.88;;;;;;;;;;10525969;28;20032;-80
2023/04/12 10:56:40;;;;;;;9.68;6.72;;;;;;;;;;10526102;28;20024;-80
2023/04/12 11:01:41;;;;;;;10.40;8.00;;;;;;;;;;10526056;28;20227;-80
2023/04/12 11:07:03;;;;;;;35.05;16.65;;;;;;;;;;10526124;28;20471;-81
2023/04/12 11:12:04;;;;;;;12.18;7.75;;;;;;;;;;10526060;28;20051;-81
2023/04/12 11:17:05;;;;;;;8.27;6.38;;;;;;;;;;10526051;28;20115;-79
2023/04/12 11:22:07;;;;;;;9.60;7.40;;;;;;;;;;10507831;28;20032;-81
2023/04/12 11:27:09;;;;;;;16.35;10.07;;;;;;;;;;10512412;28;20773;-79
2023/04/12 11:32:14;;;;;;;8.45;6.70;;;;;;;;;;10526025;28;20059;-79
2023/04/12 11:37:17;;;;;;;18.48;9.90;;;;;;;;;;10525699;28;20033;-80
2023/04/12 11:42:20;;;;;;;10.15;5.93;;;;;;;;;;10525499;28;20017;-79
2023/04/12 11:47:22;;;;;;;8.23;5.53;;;;;;;;;;10507178;28;20522;-79
2023/04/12 11:52:29;;;;;;;8.07;6.28;;;;;;;;;;10524854;28;20024;-81
2023/04/12 11:57:31;;;;;;;12.40;8.52;;;;;;;;;;10531609;28;20295;-79
2023/04/12 12:02:33;;;;;;;10.55;6.72;;;;;;;;;;10499767;28;20059;-79
2023/04/12 12:07:35;;;;;;;16.83;10.25;;;;;;;;;;10518398;28;20032;-78
2023/04/12 12:12:36;;;;;;;27.38;16.13;;;;;;;;;;10531735;28;20032;-80
2023/04/12 12:17:38;;;;;;;9.15;6.35;;;;;;;;;;10509126;28;20047;-79
2023/04/12 12:22:45;;;;;;;8.30;5.97;;;;;;;;;;10509624;28;20127;-78
2023/04/12 12:27:47;;;;;;;7.20;5.57;;;;;;;;;;10530393;28;20049;-81
2023/04/12 12:32:51;;;;;;;5.93;4.88;;;;;;;;;;10531088;28;20060;-79
2023/04/12 12:37:54;;;;;;;16.13;10.05;;;;;;;;;;10515871;28;20152;-79
2023/04/12 12:42:55;;;;;;;6.22;5.10;;;;;;;;;;10528567;28;20023;-80
2023/04/12 12:48:03;;;;;;;16.88;9.45;;;;;;;;;;10522879;28;20031;-80
2023/04/12 12:53:05;;;;;;;51.55;24.80;;;;;;;;;;10530261;28;20115;-79
2023/04/12 12:58:06;;;;;;;12.77;7.85;;;;;;;;;;10526436;28;20502;-79
2023/04/12 13:03:07;;;;;;;29.13;15.48;;;;;;;;;;10526879;28;20511;-80
2023/04/12 13:08:08;;;;;;;17.25;9.95;;;;;;;;;;10521911;28;20063;-78
2023/04/12 13:13:09;;;;;;;8.55;5.72;;;;;;;;;;10519725;28;20136;-81
2023/04/12 13:18:11;;;;;;;11.65;5.88;;;;;;;;;;10527180;28;20040;-78
2023/04/12 13:23:12;;;;;;;13.60;7.25;;;;;;;;;;10517331;28;20020;-78
2023/04/12 13:28:15;;;;;;;6.25;4.50;;;;;;;;;;10541276;28;20107;-77
2023/04/12 13:33:16;;;;;;;10.13;6.30;;;;;;;;;;10526910;28;20127;-79
2023/04/12 13:38:18;;;;;;;7.45;5.35;;;;;;;;;;10526338;28;20032;-79
2023/04/12 13:43:19;;;;;;;7.38;5.30;;;;;;;;;;10526939;28;20796;-78
2023/04/12 13:48:20;;;;;;;8.48;5.22;;;;;;;;;;10526606;28;20032;-81
2023/04/12 13:53:23;;;;;;;14.15;10.60;;;;;;;;;;10524067;28;20020;-83
2023/04/12 13:58:25;;;;;;;10.40;7.18;;;;;;;;;;10527466;28;20046;-79
2023/04/12 14:03:26;;;;;;;19.10;14.95;;;;;;;;;;10522324;28;20059;-79
2023/04/12 14:08:28;;;;;;;10.07;7.65;;;;;;;;;;10526161;28;20107;-80
2023/04/12 14:13:29;;;;;;;12.00;8.45;;;;;;;;;;10521359;28;20023;-79
2023/04/12 14:18:34;;;;;;;13.77;9.25;;;;;;;;;;10524289;28;20048;-78
2023/04/12 14:23:35;;;;;;;35.88;31.52;;;;;;;;;;10541110;28;20123;-80
2023/04/12 14:28:37;;;;;;;13.70;10.82;;;;;;;;;;10525713;28;20394;-78
2023/04/12 14:33:38;;;;;;;8.35;5.22;;;;;;;;;;10524563;28;20091;-80
2023/04/12 14:38:40;;;;;;;12.80;6.82;;;;;;;;;;10525167;28;20039;-78
2023/04/12 14:43:41;;;;;;;10.45;6.43;;;;;;;;;;10526598;28;20356;-78
2023/04/12 14:48:43;;;;;;;10.88;5.72;;;;;;;;;;10525488;28;20039;-78
2023/04/12 14:53:47;;;;;;;11.32;6.60;;;;;;;;;;10524542;28;20362;-78
2023/04/12 14:58:47;;;;;;;8.90;6.05;;;;;;;;;;10524807;28;20036;-77
2023/04/12 15:03:52;;;;;;;11.40;10.05;;;;;;;;;;10521879;28;20048;-80
2023/04/12 15:08:53;;;;;;;9.90;5.40;;;;;;;;;;10521985;28;20028;-79
2023/04/12 15:13:55;;;;;;;6.07;4.93;;;;;;;;;;10524726;28;20051;-77
2023/04/12 15:18:56;;;;;;;9.75;5.43;;;;;;;;;;10526191;28;20036;-77
2023/04/12 15:23:57;;;;;;;8.38;4.55;;;;;;;;;;10525145;28;20020;-77
2023/04/12 15:28:58;;;;;;;6.00;5.15;;;;;;;;;;10529505;28;20039;-77
2023/04/12 15:34:00;;;;;;;14.90;8.60;;;;;;;;;;10532422;28;20039;-77
2023/04/12 15:39:01;;;;;;;9.95;7.57;;;;;;;;;;10533146;28;20043;-79
2023/04/12 15:44:02;;;;;;;15.68;11.32;;;;;;;;;;10515139;28;20032;-77
2023/04/12 15:49:04;;;;;;;43.97;21.55;;;;;;;;;;10532599;28;20027;-79
2023/04/12 15:54:05;;;;;;;12.57;8.35;;;;;;;;;;10532235;28;20047;-77
2023/04/12 15:59:07;;;;;;;10.30;6.45;;;;;;;;;;10526073;28;20153;-77
2023/04/12 16:04:08;;;;;;;17.02;7.80;;;;;;;;;;10507156;28;20086;-79
2023/04/12 16:09:13;;;;;;;14.43;10.38;;;;;;;;;;10507142;28;20036;-80
2023/04/12 16:14:16;;;;;;;12.25;8.23;;;;;;;;;;10495454;28;20028;-81
2023/04/12 16:19:17;;;;;;;11.00;6.50;;;;;;;;;;10500472;28;20040;-79
2023/04/12 16:24:18;;;;;;;19.27;13.00;;;;;;;;;;10474480;28;20360;-79
2023/04/12 16:29:57;;;;;;;92.10;43.63;;;;;;;;;;10498384;28;20032;-81
2023/04/12 16:34:59;;;;;;;81.85;31.40;;;;;;;;;;10478003;28;20641;-80
2023/04/12 16:40:04;;;;;;;37.72;20.63;;;;;;;;;;10489601;28;20678;-76
2023/04/12 16:45:05;;;;;;;40.80;21.95;;;;;;;;;;10483663;28;20027;-77
2023/04/12 16:50:11;;;;;;;30.02;14.98;;;;;;;;;;10489162;28;20474;-77
2023/04/12 16:55:13;;;;;;;;;;;;;;;;;;10490500;28;20246;-78
2023/04/12 17:00:20;;;;;;;46.00;24.55;;;;;;;;;;10487164;28;19927;-77
2023/04/12 17:05:23;;;;;;;25.15;13.15;;;;;;;;;;10520938;28;20060;-77
2023/04/12 17:10:26;;;;;;;13.00;6.25;;;;;;;;;;10529074;28;20764;-77
2023/04/12 17:15:30;;;;;;;12.23;7.05;;;;;;;;;;10528404;28;20077;-77
2023/04/12 17:20:31;;;;;;;23.25;12.55;;;;;;;;;;10530095;28;20044;-79
2023/04/12 17:25:32;;;;;;;35.50;18.00;;;;;;;;;;10528409;28;20063;-80
2023/04/12 17:30:33;;;;;;;44.03;24.05;;;;;;;;;;10527336;28;20028;-77
2023/04/12 17:35:35;;;;;;;43.75;24.55;;;;;;;;;;10528357;28;20067;-78
2023/04/12 17:40:37;;;;;;;37.50;19.73;;;;;;;;;;10527921;28;20039;-79
2023/04/12 17:45:38;;;;;;;37.03;19.20;;;;;;;;;;10527816;28;20019;-80
2023/04/12 17:50:40;;;;;;;38.25;20.75;;;;;;;;;;10527299;28;20047;-80
2023/04/12 17:55:41;;;;;;;44.77;23.97;;;;;;;;;;10528607;28;20050;-78
2023/04/12 18:00:42;;;;;;;95.53;39.57;;;;;;;;;;10527498;28;20120;-78
2023/04/12 18:05:44;;;;;;;59.70;29.80;;;;;;;;;;10504375;28;20057;-80
2023/04/12 18:10:46;;;;;;;58.77;32.47;;;;;;;;;;10495730;28;20024;-77
2023/04/12 18:15:47;;;;;;;74.47;37.07;;;;;;;;;;10504569;28;20076;-78
2023/04/12 18:20:48;;;;;;;92.93;43.83;;;;;;;;;;10499906;28;20464;-77
2023/04/12 18:25:49;;;;;;;85.10;39.60;;;;;;;;;;10490503;28;20384;-78
2023/04/12 18:30:50;;;;;;;75.03;36.93;;;;;;;;;;10487086;28;20036;-78
2023/04/12 18:35:53;;;;;;;67.70;32.00;;;;;;;;;;10485520;28;20111;-78
2023/04/12 18:40:54;;;;;;;64.93;30.33;;;;;;;;;;10479671;28;20179;-80
2023/04/12 18:45:55;;;;;;;83.70;39.67;;;;;;;;;;10485541;28;20036;-78
2023/04/12 18:50:57;;;;;;;99.53;45.10;;;;;;;;;;10475656;28;20499;-77
2023/04/12 18:56:06;;;;;;;86.57;38.93;;;;;;;;;;10485187;28;20081;-80
2023/04/12 19:01:07;;;;;;;77.33;32.10;;;;;;;;;;10484324;28;20075;-81
2023/04/12 19:06:09;;;;;;;60.97;27.37;;;;;;;;;;10498646;28;20044;-77
2023/04/12 19:11:11;;;;;;;73.63;30.37;;;;;;;;;;10502991;28;20032;-78
2023/04/12 19:16:12;;;;;;;64.87;28.53;;;;;;;;;;10498124;28;20036;-77
2023/04/12 19:21:13;;;;;;;59.63;25.83;;;;;;;;;;10493419;28;20063;-77
2023/04/12 19:26:15;;;;;;;43.30;20.80;;;;;;;;;;10495907;28;20607;-78
2023/04/12 19:31:16;;;;;;;34.63;16.73;;;;;;;;;;10495440;28;20383;-79
2023/04/12 19:36:18;;;;;;;43.90;22.33;;;;;;;;;;10503402;28;20032;-78
2023/04/12 19:41:19;;;;;;;41.30;20.63;;;;;;;;;;10491508;28;20128;-77
2023/04/12 19:46:21;;;;;;;38.23;20.70;;;;;;;;;;10494004;28;20725;-80
2023/04/12 19:51:22;;;;;;;40.73;20.00;;;;;;;;;;10504210;28;20044;-77
2023/04/12 19:56:23;;;;;;;40.37;21.40;;;;;;;;;;10491240;28;20024;-78
2023/04/12 20:01:25;;;;;;;40.40;20.83;;;;;;;;;;10489900;28;20511;-77
2023/04/12 20:06:27;;;;;;;43.80;21.43;;;;;;;;;;10500448;28;20028;-79
2023/04/12 20:11:28;;;;;;;47.63;23.53;;;;;;;;;;10472816;28;20029;-77
2023/04/12 20:16:31;;;;;;;46.13;23.57;;;;;;;;;;10488534;28;20028;-78
2023/04/12 20:21:33;;;;;;;44.30;25.50;;;;;;;;;;10490461;28;20572;-77
2023/04/12 20:26:35;;;;;;;44.47;23.27;;;;;;;;;;10489493;28;20163;-80
2023/04/12 20:31:36;;;;;;;49.27;24.77;;;;;;;;;;10493034;28;20081;-77
2023/04/12 20:36:36;;;;;;;36.70;19.63;;;;;;;;;;10490627;28;20105;-77
2023/04/12 20:41:38;;;;;;;45.80;22.33;;;;;;;;;;10488949;28;20041;-77
2023/04/12 20:46:39;;;;;;;50.10;25.37;;;;;;;;;;10499877;28;20033;-77
2023/04/12 20:51:40;;;;;;;43.33;22.97;;;;;;;;;;10499476;28;20097;-81
2023/04/12 20:56:41;;;;;;;38.50;21.93;;;;;;;;;;10475645;28;20472;-77
2023/04/12 21:01:45;;;;;;;36.53;19.13;;;;;;;;;;10499730;28;20545;-78
2023/04/12 21:06:47;;;;;;;43.93;22.27;;;;;;;;;;10529288;28;20032;-78
2023/04/12 21:11:49;;;;;;;39.27;22.50;;;;;;;;;;10530101;28;20027;-78
2023/04/12 21:16:51;;;;;;;46.57;22.57;;;;;;;;;;10528254;28;20195;-77
2023/04/12 21:21:52;;;;;;;44.57;21.13;;;;;;;;;;10529094;28;20036;-78
2023/04/12 21:26:57;;;;;;;43.03;23.90;;;;;;;;;;10528389;28;20209;-77
2023/04/12 21:31:57;;;;;;;45.43;22.33;;;;;;;;;;10528703;28;20065;-78
2023/04/12 21:37:02;;;;;;;47.37;24.43;;;;;;;;;;10529660;28;20057;-79
2023/04/12 21:42:03;;;;;;;48.20;24.07;;;;;;;;;;10528622;28;20044;-77
2023/04/12 21:47:05;;;;;;;48.40;25.33;;;;;;;;;;10527740;28;20055;-80
2023/04/12 21:52:06;;;;;;;55.33;27.30;;;;;;;;;;10528768;28;20046;-77
2023/04/12 21:57:07;;;;;;;53.40;27.20;;;;;;;;;;10528408;28;20027;-79
2023/04/12 22:02:08;;;;;;;66.50;32.77;;;;;;;;;;10526986;28;20039;-78
2023/04/12 22:07:11;;;;;;;75.33;35.57;;;;;;;;;;10527854;28;20024;-77
2023/04/12 22:12:12;;;;;;;74.20;35.40;;;;;;;;;;10527607;28;20020;-77
2023/04/12 22:17:15;;;;;;;71.57;35.80;;;;;;;;;;10525680;28;20380;-77
2023/04/12 22:22:16;;;;;;;82.40;38.97;;;;;;;;;;10527774;28;20040;-77
2023/04/12 22:27:17;;;;;;;77.97;36.27;;;;;;;;;;10526348;28;20079;-78
2023/04/12 22:32:18;;;;;;;71.23;36.43;;;;;;;;;;10525652;28;20028;-78
2023/04/12 22:48:36;;;;;;;74.00;37.50;;;;;;;;;;10522867;28;20119;-80
2023/04/12 22:53:38;;;;;;;77.97;39.17;;;;;;;;;;10527037;28;20030;-77
2023/04/12 22:58:39;;;;;;;75.67;36.67;;;;;;;;;;10526046;28;20093;-80
2023/04/12 23:03:40;;;;;;;74.57;34.73;;;;;;;;;;10526297;28;20056;-77
2023/04/12 23:08:42;;;;;;;67.17;32.83;;;;;;;;;;10525319;28;20487;-78
2023/04/12 23:13:43;;;;;;;67.87;33.67;;;;;;;;;;10526565;28;20054;-79
2023/04/12 23:18:44;;;;;;;64.60;32.67;;;;;;;;;;10524989;28;20052;-77
2023/04/12 23:23:45;;;;;;;63.67;33.53;;;;;;;;;;10525135;28;20858;-78
2023/04/12 23:28:47;;;;;;;73.70;34.87;;;;;;;;;;10525887;28;20110;-78
2023/04/12 23:33:49;;;;;;;71.33;36.73;;;;;;;;;;10517505;28;20032;-77
2023/04/12 23:38:53;;;;;;;70.50;33.67;;;;;;;;;;10525524;28;20488;-78
2023/04/12 23:43:54;;;;;;;61.90;31.33;;;;;;;;;;10525695;28;20522;-79
2023/04/12 23:48:55;;;;;;;62.97;31.70;;;;;;;;;;10525808;28;20023;-77
2023/04/12 23:53:56;;;;;;;58.87;29.60;;;;;;;;;;10532708;28;20522;-78
2023/04/12 23:58:57;;;;;;;68.13;34.37;;;;;;;;;;10531665;28;20039;-78
